sensor_id;sensor_type;location;lat;lon;timestamp;P1;durP1;ratioP1;P2;durP2;ratioP2
14776;SDS011;7480;43.124;25.686;2022-08-21T00:00:25;5.37;;;2.63;;
14776;SDS011;7480;43.124;25.686;2022-08-21T00:02:54;3.13;;;2.47;;
14776;SDS011;7480;43.124;25.686;2022-08-21T00:05:22;3.40;;;2.70;;
14776;SDS011;7480;43.124;25.686;2022-08-21T00:07:49;3.03;;;2.40;;
14776;SDS011;7480;43.124;25.686;2022-08-21T00:10:16;4.00;;;2.73;;
14776;SDS011;7480;43.124;25.686;2022-08-21T00:12:43;4.17;;;2.73;;
14776;SDS011;7480;43.124;25.686;2022-08-21T00:15:11;3.30;;;2.40;;
14776;SDS011;7480;43.124;25.686;2022-08-21T00:17:39;2.50;;;2.30;;
14776;SDS011;7480;43.124;25.686;2022-08-21T00:20:07;4.00;;;2.90;;
14776;SDS011;7480;43.124;25.686;2022-08-21T00:22:35;3.33;;;2.70;;
14776;SDS011;7480;43.124;25.686;2022-08-21T00:25:02;3.00;;;2.57;;
14776;SDS011;7480;43.124;25.686;2022-08-21T00:27:29;3.90;;;3.07;;
14776;SDS011;7480;43.124;25.686;2022-08-21T00:29:56;4.47;;;2.50;;
14776;SDS011;7480;43.124;25.686;2022-08-21T00:32:22;4.63;;;2.97;;
14776;SDS011;7480;43.124;25.686;2022-08-21T00:34:50;3.13;;;2.77;;
14776;SDS011;7480;43.124;25.686;2022-08-21T00:37:16;3.30;;;3.00;;
14776;SDS011;7480;43.124;25.686;2022-08-21T00:39:43;6.87;;;3.83;;
14776;SDS011;7480;43.124;25.686;2022-08-21T00:42:10;4.40;;;3.23;;
14776;SDS011;7480;43.124;25.686;2022-08-21T00:44:44;4.00;;;3.23;;
14776;SDS011;7480;43.124;25.686;2022-08-21T00:47:11;4.03;;;3.27;;
14776;SDS011;7480;43.124;25.686;2022-08-21T00:49:38;3.93;;;3.30;;
14776;SDS011;7480;43.124;25.686;2022-08-21T00:52:06;5.63;;;3.80;;
14776;SDS011;7480;43.124;25.686;2022-08-21T00:54:33;5.27;;;4.30;;
14776;SDS011;7480;43.124;25.686;2022-08-21T00:57:05;5.26;;;3.89;;
14776;SDS011;7480;43.124;25.686;2022-08-21T00:59:35;3.83;;;3.43;;
14776;SDS011;7480;43.124;25.686;2022-08-21T01:02:04;6.00;;;4.57;;
14776;SDS011;7480;43.124;25.686;2022-08-21T01:04:31;3.90;;;3.50;;
14776;SDS011;7480;43.124;25.686;2022-08-21T01:06:57;5.80;;;4.33;;
14776;SDS011;7480;43.124;25.686;2022-08-21T01:09:24;5.10;;;3.77;;
14776;SDS011;7480;43.124;25.686;2022-08-21T01:11:50;10.57;;;4.33;;
14776;SDS011;7480;43.124;25.686;2022-08-21T01:14:17;4.83;;;4.33;;
14776;SDS011;7480;43.124;25.686;2022-08-21T01:16:47;5.40;;;3.73;;
14776;SDS011;7480;43.124;25.686;2022-08-21T01:19:14;6.13;;;4.20;;
14776;SDS011;7480;43.124;25.686;2022-08-21T01:21:43;6.93;;;4.00;;
14776;SDS011;7480;43.124;25.686;2022-08-21T01:24:10;7.07;;;4.37;;
14776;SDS011;7480;43.124;25.686;2022-08-21T01:26:36;8.40;;;4.53;;
14776;SDS011;7480;43.124;25.686;2022-08-21T01:31:33;6.57;;;4.27;;
14776;SDS011;7480;43.124;25.686;2022-08-21T01:34:00;7.30;;;3.67;;
14776;SDS011;7480;43.124;25.686;2022-08-21T01:36:27;6.57;;;3.63;;
14776;SDS011;7480;43.124;25.686;2022-08-21T01:38:53;7.03;;;4.67;;
14776;SDS011;7480;43.124;25.686;2022-08-21T01:41:20;7.23;;;3.90;;
14776;SDS011;7480;43.124;25.686;2022-08-21T01:43:46;7.83;;;4.07;;
14776;SDS011;7480;43.124;25.686;2022-08-21T01:46:13;5.33;;;3.80;;
14776;SDS011;7480;43.124;25.686;2022-08-21T01:48:40;7.63;;;4.00;;
14776;SDS011;7480;43.124;25.686;2022-08-21T01:51:07;5.80;;;3.67;;
14776;SDS011;7480;43.124;25.686;2022-08-21T01:53:34;5.50;;;3.67;;
14776;SDS011;7480;43.124;25.686;2022-08-21T01:56:03;3.87;;;3.03;;
14776;SDS011;7480;43.124;25.686;2022-08-21T01:58:38;5.37;;;3.40;;
14776;SDS011;7480;43.124;25.686;2022-08-21T02:01:05;5.07;;;3.97;;
14776;SDS011;7480;43.124;25.686;2022-08-21T02:03:31;5.03;;;4.00;;
14776;SDS011;7480;43.124;25.686;2022-08-21T02:06:02;4.20;;;3.43;;
14776;SDS011;7480;43.124;25.686;2022-08-21T02:08:29;4.73;;;3.60;;
14776;SDS011;7480;43.124;25.686;2022-08-21T02:10:55;4.33;;;3.43;;
14776;SDS011;7480;43.124;25.686;2022-08-21T02:13:22;5.87;;;3.60;;
14776;SDS011;7480;43.124;25.686;2022-08-21T02:15:48;3.50;;;2.77;;
14776;SDS011;7480;43.124;25.686;2022-08-21T02:18:15;5.13;;;3.10;;
14776;SDS011;7480;43.124;25.686;2022-08-21T02:20:43;5.97;;;3.80;;
14776;SDS011;7480;43.124;25.686;2022-08-21T02:23:10;6.60;;;4.07;;
14776;SDS011;7480;43.124;25.686;2022-08-21T02:25:37;5.57;;;3.90;;
14776;SDS011;7480;43.124;25.686;2022-08-21T02:28:05;4.00;;;3.27;;
14776;SDS011;7480;43.124;25.686;2022-08-21T02:30:34;5.07;;;3.83;;
14776;SDS011;7480;43.124;25.686;2022-08-21T02:33:01;4.03;;;3.63;;
14776;SDS011;7480;43.124;25.686;2022-08-21T02:35:27;4.47;;;3.83;;
14776;SDS011;7480;43.124;25.686;2022-08-21T02:37:58;4.73;;;3.80;;
14776;SDS011;7480;43.124;25.686;2022-08-21T02:40:26;5.20;;;3.63;;
14776;SDS011;7480;43.124;25.686;2022-08-21T02:42:53;5.10;;;3.63;;
14776;SDS011;7480;43.124;25.686;2022-08-21T02:45:20;3.87;;;3.27;;
14776;SDS011;7480;43.124;25.686;2022-08-21T02:47:53;4.93;;;3.87;;
14776;SDS011;7480;43.124;25.686;2022-08-21T02:50:22;6.50;;;3.00;;
14776;SDS011;7480;43.124;25.686;2022-08-21T02:52:51;5.33;;;3.37;;
14776;SDS011;7480;43.124;25.686;2022-08-21T02:55:22;4.00;;;3.03;;
14776;SDS011;7480;43.124;25.686;2022-08-21T02:57:48;4.97;;;3.53;;
14776;SDS011;7480;43.124;25.686;2022-08-21T03:00:15;4.90;;;4.17;;
14776;SDS011;7480;43.124;25.686;2022-08-21T03:02:42;4.77;;;3.73;;
14776;SDS011;7480;43.124;25.686;2022-08-21T03:05:09;5.00;;;3.30;;
14776;SDS011;7480;43.124;25.686;2022-08-21T03:07:36;4.63;;;3.40;;
14776;SDS011;7480;43.124;25.686;2022-08-21T03:10:04;5.63;;;3.67;;
14776;SDS011;7480;43.124;25.686;2022-08-21T03:12:30;8.47;;;4.43;;
14776;SDS011;7480;43.124;25.686;2022-08-21T03:14:57;4.60;;;3.40;;
14776;SDS011;7480;43.124;25.686;2022-08-21T03:17:24;5.47;;;4.03;;
14776;SDS011;7480;43.124;25.686;2022-08-21T03:19:55;5.23;;;3.90;;
14776;SDS011;7480;43.124;25.686;2022-08-21T03:22:22;4.40;;;3.50;;
14776;SDS011;7480;43.124;25.686;2022-08-21T03:24:49;4.47;;;3.43;;
14776;SDS011;7480;43.124;25.686;2022-08-21T03:27:16;5.17;;;4.03;;
14776;SDS011;7480;43.124;25.686;2022-08-21T03:29:45;6.87;;;4.27;;
14776;SDS011;7480;43.124;25.686;2022-08-21T03:32:11;5.23;;;4.07;;
14776;SDS011;7480;43.124;25.686;2022-08-21T03:34:38;7.30;;;3.70;;
14776;SDS011;7480;43.124;25.686;2022-08-21T03:37:06;4.60;;;4.07;;
14776;SDS011;7480;43.124;25.686;2022-08-21T03:39:33;4.80;;;3.37;;
14776;SDS011;7480;43.124;25.686;2022-08-21T03:42:00;5.23;;;3.97;;
14776;SDS011;7480;43.124;25.686;2022-08-21T03:44:27;4.33;;;3.63;;
14776;SDS011;7480;43.124;25.686;2022-08-21T03:46:55;3.97;;;3.50;;
14776;SDS011;7480;43.124;25.686;2022-08-21T03:49:23;4.60;;;3.57;;
14776;SDS011;7480;43.124;25.686;2022-08-21T03:51:49;4.97;;;3.93;;
14776;SDS011;7480;43.124;25.686;2022-08-21T03:54:25;5.73;;;3.80;;
14776;SDS011;7480;43.124;25.686;2022-08-21T03:56:54;6.43;;;3.97;;
14776;SDS011;7480;43.124;25.686;2022-08-21T03:59:20;4.90;;;3.87;;
14776;SDS011;7480;43.124;25.686;2022-08-21T04:01:53;6.47;;;4.30;;
14776;SDS011;7480;43.124;25.686;2022-08-21T04:04:20;6.77;;;4.33;;
14776;SDS011;7480;43.124;25.686;2022-08-21T04:06:46;4.73;;;3.60;;
14776;SDS011;7480;43.124;25.686;2022-08-21T04:09:13;4.90;;;3.87;;
14776;SDS011;7480;43.124;25.686;2022-08-21T04:11:40;4.73;;;3.70;;
14776;SDS011;7480;43.124;25.686;2022-08-21T04:14:06;6.83;;;4.53;;
14776;SDS011;7480;43.124;25.686;2022-08-21T04:16:33;6.00;;;3.77;;
14776;SDS011;7480;43.124;25.686;2022-08-21T04:18:59;3.57;;;3.20;;
14776;SDS011;7480;43.124;25.686;2022-08-21T04:21:26;4.10;;;3.53;;
14776;SDS011;7480;43.124;25.686;2022-08-21T04:23:56;4.20;;;3.13;;
14776;SDS011;7480;43.124;25.686;2022-08-21T04:26:23;4.47;;;3.67;;
14776;SDS011;7480;43.124;25.686;2022-08-21T04:28:49;5.00;;;3.50;;
14776;SDS011;7480;43.124;25.686;2022-08-21T04:31:16;5.73;;;4.27;;
14776;SDS011;7480;43.124;25.686;2022-08-21T04:33:42;6.17;;;3.30;;
14776;SDS011;7480;43.124;25.686;2022-08-21T04:36:09;5.20;;;3.80;;
14776;SDS011;7480;43.124;25.686;2022-08-21T04:38:35;4.23;;;3.43;;
14776;SDS011;7480;43.124;25.686;2022-08-21T04:41:03;5.07;;;3.60;;
14776;SDS011;7480;43.124;25.686;2022-08-21T04:43:31;4.37;;;3.67;;
14776;SDS011;7480;43.124;25.686;2022-08-21T04:45:58;4.10;;;3.70;;
14776;SDS011;7480;43.124;25.686;2022-08-21T04:48:26;4.37;;;3.23;;
14776;SDS011;7480;43.124;25.686;2022-08-21T04:53:38;5.53;;;3.70;;
14776;SDS011;7480;43.124;25.686;2022-08-21T04:56:17;3.70;;;3.03;;
14776;SDS011;7480;43.124;25.686;2022-08-21T04:58:45;4.17;;;3.50;;
14776;SDS011;7480;43.124;25.686;2022-08-21T05:01:13;6.57;;;3.83;;
14776;SDS011;7480;43.124;25.686;2022-08-21T05:03:40;4.37;;;3.70;;
14776;SDS011;7480;43.124;25.686;2022-08-21T05:06:10;5.03;;;3.77;;
14776;SDS011;7480;43.124;25.686;2022-08-21T05:08:37;4.27;;;3.37;;
14776;SDS011;7480;43.124;25.686;2022-08-21T05:11:04;4.50;;;3.53;;
14776;SDS011;7480;43.124;25.686;2022-08-21T05:13:31;5.50;;;3.67;;
14776;SDS011;7480;43.124;25.686;2022-08-21T05:15:58;6.17;;;3.67;;
14776;SDS011;7480;43.124;25.686;2022-08-21T05:18:25;6.00;;;3.07;;
14776;SDS011;7480;43.124;25.686;2022-08-21T05:20:51;4.63;;;3.77;;
14776;SDS011;7480;43.124;25.686;2022-08-21T05:23:18;5.70;;;3.57;;
14776;SDS011;7480;43.124;25.686;2022-08-21T05:25:44;5.20;;;3.70;;
14776;SDS011;7480;43.124;25.686;2022-08-21T05:28:11;4.40;;;3.47;;
14776;SDS011;7480;43.124;25.686;2022-08-21T05:30:38;5.30;;;4.17;;
14776;SDS011;7480;43.124;25.686;2022-08-21T05:33:05;7.40;;;4.57;;
14776;SDS011;7480;43.124;25.686;2022-08-21T05:35:32;5.77;;;4.10;;
14776;SDS011;7480;43.124;25.686;2022-08-21T05:37:59;6.80;;;4.13;;
14776;SDS011;7480;43.124;25.686;2022-08-21T05:40:26;4.77;;;4.27;;
14776;SDS011;7480;43.124;25.686;2022-08-21T05:42:53;5.47;;;4.03;;
14776;SDS011;7480;43.124;25.686;2022-08-21T05:45:25;6.97;;;5.23;;
14776;SDS011;7480;43.124;25.686;2022-08-21T05:48:10;6.70;;;4.50;;
14776;SDS011;7480;43.124;25.686;2022-08-21T05:50:36;7.80;;;5.67;;
14776;SDS011;7480;43.124;25.686;2022-08-21T05:53:04;6.30;;;5.20;;
14776;SDS011;7480;43.124;25.686;2022-08-21T05:55:32;6.57;;;5.17;;
14776;SDS011;7480;43.124;25.686;2022-08-21T05:57:59;9.20;;;5.33;;
14776;SDS011;7480;43.124;25.686;2022-08-21T06:00:26;6.83;;;4.90;;
14776;SDS011;7480;43.124;25.686;2022-08-21T06:02:52;6.97;;;4.73;;
14776;SDS011;7480;43.124;25.686;2022-08-21T06:05:19;6.37;;;5.40;;
14776;SDS011;7480;43.124;25.686;2022-08-21T06:08:02;7.97;;;6.03;;
14776;SDS011;7480;43.124;25.686;2022-08-21T06:10:29;9.07;;;5.50;;
14776;SDS011;7480;43.124;25.686;2022-08-21T06:12:55;8.83;;;5.60;;
14776;SDS011;7480;43.124;25.686;2022-08-21T06:15:22;6.27;;;4.80;;
14776;SDS011;7480;43.124;25.686;2022-08-21T06:17:49;7.63;;;5.40;;
14776;SDS011;7480;43.124;25.686;2022-08-21T06:20:15;8.13;;;6.13;;
14776;SDS011;7480;43.124;25.686;2022-08-21T06:22:42;7.80;;;5.10;;
14776;SDS011;7480;43.124;25.686;2022-08-21T06:25:08;5.27;;;4.13;;
14776;SDS011;7480;43.124;25.686;2022-08-21T06:27:35;6.03;;;5.00;;
14776;SDS011;7480;43.124;25.686;2022-08-21T06:30:03;6.17;;;4.60;;
14776;SDS011;7480;43.124;25.686;2022-08-21T06:32:29;8.53;;;4.87;;
14776;SDS011;7480;43.124;25.686;2022-08-21T06:34:56;5.53;;;5.00;;
14776;SDS011;7480;43.124;25.686;2022-08-21T06:37:22;6.03;;;4.20;;
14776;SDS011;7480;43.124;25.686;2022-08-21T06:39:49;4.23;;;3.83;;
14776;SDS011;7480;43.124;25.686;2022-08-21T06:42:16;5.57;;;4.10;;
14776;SDS011;7480;43.124;25.686;2022-08-21T06:44:43;5.97;;;4.23;;
14776;SDS011;7480;43.124;25.686;2022-08-21T06:47:10;5.40;;;3.87;;
14776;SDS011;7480;43.124;25.686;2022-08-21T06:49:36;5.77;;;3.87;;
14776;SDS011;7480;43.124;25.686;2022-08-21T06:52:03;5.33;;;3.73;;
14776;SDS011;7480;43.124;25.686;2022-08-21T06:54:29;4.87;;;3.60;;
14776;SDS011;7480;43.124;25.686;2022-08-21T06:56:56;5.73;;;4.63;;
14776;SDS011;7480;43.124;25.686;2022-08-21T06:59:23;4.20;;;3.77;;
14776;SDS011;7480;43.124;25.686;2022-08-21T07:01:49;5.13;;;3.70;;
14776;SDS011;7480;43.124;25.686;2022-08-21T07:04:16;5.57;;;3.60;;
14776;SDS011;7480;43.124;25.686;2022-08-21T07:06:42;4.67;;;3.93;;
14776;SDS011;7480;43.124;25.686;2022-08-21T07:09:09;6.63;;;4.53;;
14776;SDS011;7480;43.124;25.686;2022-08-21T07:11:36;6.77;;;3.50;;
14776;SDS011;7480;43.124;25.686;2022-08-21T07:14:12;4.07;;;3.47;;
14776;SDS011;7480;43.124;25.686;2022-08-21T07:16:46;3.70;;;3.30;;
14776;SDS011;7480;43.124;25.686;2022-08-21T07:19:12;5.13;;;3.57;;
14776;SDS011;7480;43.124;25.686;2022-08-21T07:21:39;4.13;;;3.40;;
14776;SDS011;7480;43.124;25.686;2022-08-21T07:24:05;4.90;;;3.57;;
14776;SDS011;7480;43.124;25.686;2022-08-21T07:26:32;6.33;;;3.47;;
14776;SDS011;7480;43.124;25.686;2022-08-21T07:28:58;4.93;;;3.35;;
14776;SDS011;7480;43.124;25.686;2022-08-21T07:31:25;4.63;;;3.45;;
14776;SDS011;7480;43.124;25.686;2022-08-21T07:33:52;6.53;;;3.85;;
14776;SDS011;7480;43.124;25.686;2022-08-21T07:36:18;4.97;;;3.70;;
14776;SDS011;7480;43.124;25.686;2022-08-21T07:38:45;5.22;;;3.65;;
14776;SDS011;7480;43.124;25.686;2022-08-21T07:41:22;4.50;;;3.38;;
14776;SDS011;7480;43.124;25.686;2022-08-21T07:43:49;5.03;;;3.92;;
14776;SDS011;7480;43.124;25.686;2022-08-21T07:46:18;5.28;;;3.40;;
14776;SDS011;7480;43.124;25.686;2022-08-21T07:48:44;4.88;;;3.58;;
14776;SDS011;7480;43.124;25.686;2022-08-21T07:51:13;4.38;;;3.75;;
14776;SDS011;7480;43.124;25.686;2022-08-21T07:53:40;5.80;;;4.25;;
14776;SDS011;7480;43.124;25.686;2022-08-21T07:56:07;4.43;;;3.28;;
14776;SDS011;7480;43.124;25.686;2022-08-21T07:58:34;4.85;;;3.80;;
14776;SDS011;7480;43.124;25.686;2022-08-21T08:01:01;5.20;;;4.07;;
14776;SDS011;7480;43.124;25.686;2022-08-21T08:03:27;4.35;;;3.90;;
14776;SDS011;7480;43.124;25.686;2022-08-21T08:05:55;6.40;;;3.80;;
14776;SDS011;7480;43.124;25.686;2022-08-21T08:08:21;4.90;;;3.75;;
14776;SDS011;7480;43.124;25.686;2022-08-21T08:10:48;5.13;;;4.15;;
14776;SDS011;7480;43.124;25.686;2022-08-21T08:13:16;4.47;;;3.88;;
14776;SDS011;7480;43.124;25.686;2022-08-21T08:15:42;7.03;;;3.80;;
14776;SDS011;7480;43.124;25.686;2022-08-21T08:18:09;4.10;;;3.58;;
14776;SDS011;7480;43.124;25.686;2022-08-21T08:20:35;4.47;;;3.70;;
14776;SDS011;7480;43.124;25.686;2022-08-21T08:23:02;7.53;;;4.03;;
14776;SDS011;7480;43.124;25.686;2022-08-21T08:25:29;3.92;;;3.63;;
14776;SDS011;7480;43.124;25.686;2022-08-21T08:28:01;3.92;;;3.50;;
14776;SDS011;7480;43.124;25.686;2022-08-21T08:30:41;4.82;;;3.50;;
14776;SDS011;7480;43.124;25.686;2022-08-21T08:33:08;5.72;;;3.80;;
14776;SDS011;7480;43.124;25.686;2022-08-21T08:35:35;3.35;;;3.05;;
14776;SDS011;7480;43.124;25.686;2022-08-21T08:38:10;5.90;;;3.77;;
14776;SDS011;7480;43.124;25.686;2022-08-21T08:40:44;4.97;;;3.65;;
14776;SDS011;7480;43.124;25.686;2022-08-21T08:43:12;5.30;;;4.35;;
14776;SDS011;7480;43.124;25.686;2022-08-21T08:45:40;5.45;;;3.80;;
14776;SDS011;7480;43.124;25.686;2022-08-21T08:48:10;9.60;;;4.00;;
14776;SDS011;7480;43.124;25.686;2022-08-21T08:50:49;7.20;;;4.57;;
14776;SDS011;7480;43.124;25.686;2022-08-21T08:53:22;4.57;;;3.97;;
14776;SDS011;7480;43.124;25.686;2022-08-21T08:55:51;7.68;;;5.00;;
14776;SDS011;7480;43.124;25.686;2022-08-21T08:58:39;6.88;;;4.30;;
14776;SDS011;7480;43.124;25.686;2022-08-21T09:01:05;6.22;;;4.32;;
14776;SDS011;7480;43.124;25.686;2022-08-21T09:03:35;8.43;;;4.90;;
14776;SDS011;7480;43.124;25.686;2022-08-21T09:06:06;6.07;;;4.60;;
14776;SDS011;7480;43.124;25.686;2022-08-21T09:08:50;6.13;;;4.22;;
14776;SDS011;7480;43.124;25.686;2022-08-21T09:13:55;4.30;;;3.28;;
14776;SDS011;7480;43.124;25.686;2022-08-21T09:21:39;5.03;;;3.38;;
14776;SDS011;7480;43.124;25.686;2022-08-21T09:29:12;4.47;;;3.67;;
14776;SDS011;7480;43.124;25.686;2022-08-21T09:31:38;4.80;;;3.75;;
14776;SDS011;7480;43.124;25.686;2022-08-21T09:34:06;3.20;;;2.90;;
14776;SDS011;7480;43.124;25.686;2022-08-21T09:36:41;4.95;;;3.22;;
14776;SDS011;7480;43.124;25.686;2022-08-21T09:39:09;4.95;;;3.65;;
14776;SDS011;7480;43.124;25.686;2022-08-21T09:41:36;4.03;;;3.47;;
14776;SDS011;7480;43.124;25.686;2022-08-21T09:44:04;4.97;;;3.58;;
14776;SDS011;7480;43.124;25.686;2022-08-21T09:46:30;6.10;;;3.30;;
14776;SDS011;7480;43.124;25.686;2022-08-21T09:48:59;6.80;;;3.80;;
14776;SDS011;7480;43.124;25.686;2022-08-21T09:51:31;5.78;;;3.70;;
14776;SDS011;7480;43.124;25.686;2022-08-21T09:56:32;3.88;;;3.40;;
14776;SDS011;7480;43.124;25.686;2022-08-21T09:59:20;5.28;;;3.50;;
14776;SDS011;7480;43.124;25.686;2022-08-21T10:01:52;3.70;;;3.13;;
14776;SDS011;7480;43.124;25.686;2022-08-21T10:04:20;4.53;;;3.50;;
14776;SDS011;7480;43.124;25.686;2022-08-21T10:06:47;4.68;;;3.42;;
14776;SDS011;7480;43.124;25.686;2022-08-21T10:09:15;4.72;;;3.80;;
14776;SDS011;7480;43.124;25.686;2022-08-21T10:12:33;3.15;;;2.85;;
14776;SDS011;7480;43.124;25.686;2022-08-21T10:17:27;4.90;;;3.08;;
14776;SDS011;7480;43.124;25.686;2022-08-21T10:19:59;2.85;;;2.58;;
14776;SDS011;7480;43.124;25.686;2022-08-21T10:27:41;5.50;;;3.15;;
14776;SDS011;7480;43.124;25.686;2022-08-21T10:30:11;5.45;;;3.35;;
14776;SDS011;7480;43.124;25.686;2022-08-21T10:35:26;4.63;;;2.90;;
14776;SDS011;7480;43.124;25.686;2022-08-21T10:43:25;3.90;;;3.17;;
14776;SDS011;7480;43.124;25.686;2022-08-21T10:48:22;4.20;;;2.80;;
14776;SDS011;7480;43.124;25.686;2022-08-21T10:50:52;3.80;;;2.92;;
14776;SDS011;7480;43.124;25.686;2022-08-21T10:56:05;4.70;;;2.67;;
14776;SDS011;7480;43.124;25.686;2022-08-21T10:58:45;2.47;;;2.22;;
14776;SDS011;7480;43.124;25.686;2022-08-21T11:01:17;4.85;;;2.45;;
14776;SDS011;7480;43.124;25.686;2022-08-21T11:03:45;3.58;;;2.40;;
14776;SDS011;7480;43.124;25.686;2022-08-21T11:06:14;2.88;;;2.67;;
14776;SDS011;7480;43.124;25.686;2022-08-21T11:08:45;4.68;;;3.10;;
14776;SDS011;7480;43.124;25.686;2022-08-21T11:13:54;3.20;;;2.72;;
14776;SDS011;7480;43.124;25.686;2022-08-21T11:16:49;3.22;;;2.40;;
14776;SDS011;7480;43.124;25.686;2022-08-21T11:19:29;4.68;;;3.33;;
14776;SDS011;7480;43.124;25.686;2022-08-21T11:21:58;3.97;;;2.33;;
14776;SDS011;7480;43.124;25.686;2022-08-21T11:34:33;4.00;;;3.42;;
14776;SDS011;7480;43.124;25.686;2022-08-21T11:37:06;3.00;;;2.63;;
14776;SDS011;7480;43.124;25.686;2022-08-21T11:40:09;5.30;;;2.60;;
14776;SDS011;7480;43.124;25.686;2022-08-21T11:42:36;4.95;;;2.65;;
14776;SDS011;7480;43.124;25.686;2022-08-21T11:50:23;3.83;;;2.65;;
14776;SDS011;7480;43.124;25.686;2022-08-21T12:00:56;3.38;;;2.58;;
14776;SDS011;7480;43.124;25.686;2022-08-21T12:03:33;4.15;;;2.83;;
14776;SDS011;7480;43.124;25.686;2022-08-21T12:06:02;2.92;;;2.60;;
14776;SDS011;7480;43.124;25.686;2022-08-21T12:08:34;6.60;;;2.50;;
14776;SDS011;7480;43.124;25.686;2022-08-21T12:11:43;5.95;;;2.80;;
14776;SDS011;7480;43.124;25.686;2022-08-21T12:19:40;3.03;;;2.53;;
14776;SDS011;7480;43.124;25.686;2022-08-21T12:21:49;2.83;;;2.50;;
14776;SDS011;7480;43.124;25.686;2022-08-21T12:24:18;4.82;;;3.00;;
14776;SDS011;7480;43.124;25.686;2022-08-21T12:29:36;3.47;;;2.67;;
14776;SDS011;7480;43.124;25.686;2022-08-21T12:32:03;4.43;;;3.15;;
14776;SDS011;7480;43.124;25.686;2022-08-21T12:37:22;4.43;;;2.83;;
14776;SDS011;7480;43.124;25.686;2022-08-21T12:39:50;6.32;;;3.30;;
14776;SDS011;7480;43.124;25.686;2022-08-21T12:42:20;3.60;;;2.65;;
14776;SDS011;7480;43.124;25.686;2022-08-21T12:44:54;5.30;;;3.03;;
14776;SDS011;7480;43.124;25.686;2022-08-21T12:47:32;4.53;;;3.17;;
14776;SDS011;7480;43.124;25.686;2022-08-21T12:50:11;5.30;;;2.95;;
14776;SDS011;7480;43.124;25.686;2022-08-21T12:52:44;5.38;;;2.85;;
14776;SDS011;7480;43.124;25.686;2022-08-21T12:55:12;3.75;;;3.10;;
14776;SDS011;7480;43.124;25.686;2022-08-21T12:57:40;3.75;;;2.83;;
14776;SDS011;7480;43.124;25.686;2022-08-21T13:00:07;4.18;;;3.63;;
14776;SDS011;7480;43.124;25.686;2022-08-21T13:02:42;3.25;;;2.95;;
14776;SDS011;7480;43.124;25.686;2022-08-21T13:05:12;4.47;;;3.30;;
14776;SDS011;7480;43.124;25.686;2022-08-21T13:07:42;5.22;;;3.45;;
14776;SDS011;7480;43.124;25.686;2022-08-21T13:12:45;4.20;;;3.17;;
14776;SDS011;7480;43.124;25.686;2022-08-21T13:15:12;3.65;;;2.45;;
14776;SDS011;7480;43.124;25.686;2022-08-21T13:17:41;2.95;;;2.42;;
14776;SDS011;7480;43.124;25.686;2022-08-21T13:20:21;2.85;;;1.73;;
14776;SDS011;7480;43.124;25.686;2022-08-21T13:22:48;4.47;;;2.35;;
14776;SDS011;7480;43.124;25.686;2022-08-21T13:25:15;4.15;;;2.40;;
14776;SDS011;7480;43.124;25.686;2022-08-21T13:27:43;3.85;;;3.05;;
14776;SDS011;7480;43.124;25.686;2022-08-21T13:30:17;4.82;;;3.35;;
14776;SDS011;7480;43.124;25.686;2022-08-21T13:32:45;2.60;;;2.40;;
14776;SDS011;7480;43.124;25.686;2022-08-21T13:35:14;2.92;;;2.70;;
14776;SDS011;7480;43.124;25.686;2022-08-21T13:37:41;4.78;;;3.03;;
14776;SDS011;7480;43.124;25.686;2022-08-21T13:40:15;4.95;;;2.85;;
14776;SDS011;7480;43.124;25.686;2022-08-21T13:42:43;4.00;;;2.78;;
14776;SDS011;7480;43.124;25.686;2022-08-21T13:45:12;2.97;;;2.45;;
14776;SDS011;7480;43.124;25.686;2022-08-21T13:47:39;2.65;;;2.35;;
14776;SDS011;7480;43.124;25.686;2022-08-21T13:50:05;5.57;;;2.40;;
14776;SDS011;7480;43.124;25.686;2022-08-21T13:52:33;3.92;;;2.88;;
14776;SDS011;7480;43.124;25.686;2022-08-21T13:55:12;3.60;;;2.80;;
14776;SDS011;7480;43.124;25.686;2022-08-21T13:57:39;3.50;;;2.88;;
14776;SDS011;7480;43.124;25.686;2022-08-21T14:00:09;5.43;;;2.80;;
14776;SDS011;7480;43.124;25.686;2022-08-21T14:02:38;2.67;;;2.17;;
14776;SDS011;7480;43.124;25.686;2022-08-21T14:05:05;2.65;;;2.40;;
14776;SDS011;7480;43.124;25.686;2022-08-21T14:07:37;4.15;;;2.40;;
14776;SDS011;7480;43.124;25.686;2022-08-21T14:10:06;3.00;;;2.45;;
14776;SDS011;7480;43.124;25.686;2022-08-21T14:12:56;3.63;;;2.28;;
14776;SDS011;7480;43.124;25.686;2022-08-21T14:15:25;2.42;;;2.20;;
14776;SDS011;7480;43.124;25.686;2022-08-21T14:17:52;5.57;;;2.50;;
14776;SDS011;7480;43.124;25.686;2022-08-21T14:20:26;4.32;;;2.20;;
14776;SDS011;7480;43.124;25.686;2022-08-21T14:22:53;4.47;;;2.65;;
14776;SDS011;7480;43.124;25.686;2022-08-21T14:30:20;2.70;;;2.50;;
14776;SDS011;7480;43.124;25.686;2022-08-21T14:32:47;3.40;;;2.93;;
14776;SDS011;7480;43.124;25.686;2022-08-21T14:35:14;3.50;;;2.75;;
14776;SDS011;7480;43.124;25.686;2022-08-21T14:37:48;3.28;;;2.33;;
14776;SDS011;7480;43.124;25.686;2022-08-21T14:40:19;3.45;;;2.63;;
14776;SDS011;7480;43.124;25.686;2022-08-21T14:42:46;4.33;;;3.13;;
14776;SDS011;7480;43.124;25.686;2022-08-21T14:45:14;3.07;;;2.77;;
14776;SDS011;7480;43.124;25.686;2022-08-21T14:47:42;3.83;;;2.93;;
14776;SDS011;7480;43.124;25.686;2022-08-21T14:50:10;6.10;;;3.70;;
14776;SDS011;7480;43.124;25.686;2022-08-21T14:52:37;4.73;;;3.30;;
14776;SDS011;7480;43.124;25.686;2022-08-21T14:55:04;3.90;;;3.30;;
14776;SDS011;7480;43.124;25.686;2022-08-21T14:57:30;3.80;;;2.90;;
14776;SDS011;7480;43.124;25.686;2022-08-21T14:59:57;4.03;;;3.23;;
14776;SDS011;7480;43.124;25.686;2022-08-21T15:02:27;5.67;;;2.67;;
14776;SDS011;7480;43.124;25.686;2022-08-21T15:04:53;5.23;;;2.50;;
14776;SDS011;7480;43.124;25.686;2022-08-21T15:07:20;2.97;;;2.67;;
14776;SDS011;7480;43.124;25.686;2022-08-21T15:09:46;3.93;;;2.83;;
14776;SDS011;7480;43.124;25.686;2022-08-21T15:12:13;6.47;;;3.20;;
14776;SDS011;7480;43.124;25.686;2022-08-21T15:14:40;3.67;;;3.00;;
14776;SDS011;7480;43.124;25.686;2022-08-21T15:17:08;3.40;;;2.90;;
14776;SDS011;7480;43.124;25.686;2022-08-21T15:19:35;2.90;;;2.27;;
14776;SDS011;7480;43.124;25.686;2022-08-21T15:22:02;3.90;;;3.60;;
14776;SDS011;7480;43.124;25.686;2022-08-21T15:24:29;2.28;;;2.08;;
14776;SDS011;7480;43.124;25.686;2022-08-21T15:26:56;4.10;;;3.30;;
14776;SDS011;7480;43.124;25.686;2022-08-21T15:29:25;6.33;;;3.20;;
14776;SDS011;7480;43.124;25.686;2022-08-21T15:31:59;3.87;;;2.90;;
14776;SDS011;7480;43.124;25.686;2022-08-21T15:34:28;3.47;;;2.80;;
14776;SDS011;7480;43.124;25.686;2022-08-21T15:36:55;2.83;;;2.50;;
14776;SDS011;7480;43.124;25.686;2022-08-21T15:39:22;4.77;;;3.37;;
14776;SDS011;7480;43.124;25.686;2022-08-21T15:41:50;3.23;;;2.63;;
14776;SDS011;7480;43.124;25.686;2022-08-21T15:44:16;4.60;;;3.37;;
14776;SDS011;7480;43.124;25.686;2022-08-21T15:46:43;5.90;;;3.67;;
14776;SDS011;7480;43.124;25.686;2022-08-21T15:49:11;5.27;;;3.50;;
14776;SDS011;7480;43.124;25.686;2022-08-21T15:51:37;8.83;;;4.23;;
14776;SDS011;7480;43.124;25.686;2022-08-21T15:54:08;5.40;;;4.22;;
14776;SDS011;7480;43.124;25.686;2022-08-21T15:56:36;4.50;;;3.70;;
14776;SDS011;7480;43.124;25.686;2022-08-21T15:59:08;5.37;;;4.30;;
14776;SDS011;7480;43.124;25.686;2022-08-21T16:01:35;5.53;;;3.70;;
14776;SDS011;7480;43.124;25.686;2022-08-21T16:04:10;6.87;;;3.70;;
14776;SDS011;7480;43.124;25.686;2022-08-21T16:06:38;6.50;;;3.50;;
14776;SDS011;7480;43.124;25.686;2022-08-21T16:09:20;4.87;;;3.37;;
14776;SDS011;7480;43.124;25.686;2022-08-21T16:11:47;3.17;;;2.53;;
14776;SDS011;7480;43.124;25.686;2022-08-21T16:14:14;4.33;;;2.73;;
14776;SDS011;7480;43.124;25.686;2022-08-21T16:16:41;4.50;;;3.30;;
14776;SDS011;7480;43.124;25.686;2022-08-21T16:19:08;4.00;;;2.43;;
14776;SDS011;7480;43.124;25.686;2022-08-21T16:21:36;3.27;;;2.30;;
14776;SDS011;7480;43.124;25.686;2022-08-21T16:24:02;2.95;;;2.40;;